createdAt,value
2018-02-23T00:11:12.769Z,98452.66
2018-02-23T00:31:46.747Z,98450.06
2018-02-23T00:52:22.028Z,98439.66
2018-02-23T01:12:56.987Z,98428.19
2018-02-23T01:33:31.653Z,98435.80
2018-02-23T01:54:09.677Z,98417.05
2018-02-23T02:14:45.869Z,98404.68
2018-02-23T02:35:21.140Z,98393.94
2018-02-23T02:56:00.666Z,98390.61
2018-02-23T03:16:37.829Z,98366.61
2018-02-23T03:37:11.873Z,98359.73
2018-02-23T03:57:49.910Z,98354.78
2018-02-23T04:18:28.253Z,98374.58
2018-02-23T04:39:03.879Z,98382.59
2018-02-23T04:59:29.009Z,98387.84
2018-02-23T05:20:03.929Z,98378.83
2018-02-23T05:40:38.279Z,98364.63
2018-02-23T06:01:11.400Z,98376.02
2018-02-23T06:21:48.932Z,98388.16
2018-02-23T06:42:21.941Z,98407.55
2018-02-23T07:02:53.221Z,98414.13
2018-02-23T07:23:20.198Z,98420.59
2018-02-23T07:43:55.759Z,98414.66
2018-02-23T08:04:32.957Z,98417.80
2018-02-23T08:25:08.192Z,98413.45
2018-02-23T08:45:43.125Z,98420.68
2018-02-23T09:06:21.469Z,98432.92
2018-02-23T09:26:56.918Z,98445.06
2018-02-23T09:47:28.938Z,98435.12
2018-02-23T10:08:06.057Z,98456.09
2018-02-23T10:28:39.183Z,98446.21
2018-02-23T10:49:11.683Z,98427.20
2018-02-23T11:09:46.646Z,98426.55
2018-02-23T11:30:20.997Z,98419.06
2018-02-23T11:50:55.039Z,98418.63
2018-02-23T12:11:30.847Z,98407.76
2018-02-23T12:32:04.658Z,98384.31
2018-02-23T12:52:39.933Z,98347.98
2018-02-23T13:13:17.390Z,98310.08
2018-02-23T13:33:49.591Z,98291.52
2018-02-23T13:54:25.441Z,98296.09
2018-02-23T14:15:00.710Z,98286.40
2018-02-23T14:35:35.059Z,98280.41
2018-02-23T14:56:10.335Z,98283.69
2018-02-23T15:16:44.372Z,98277.26
2018-02-23T15:37:15.706Z,98279.14
2018-02-23T16:19:06.760Z,98309.44
2018-02-23T16:39:41.057Z,98292.36
2018-02-23T17:00:14.890Z,98313.00
2018-02-23T17:20:52.254Z,98316.55
2018-02-23T17:41:26.871Z,98324.84
2018-02-23T18:02:03.717Z,98339.63
2018-02-23T18:22:42.985Z,98361.33
2018-02-23T18:43:22.512Z,98381.91
2018-02-23T19:03:58.441Z,98386.69
2018-02-23T19:24:36.782Z,98378.81
2018-02-23T19:45:13.904Z,98396.61
2018-02-23T20:05:54.549Z,98402.93
2018-02-23T20:26:31.512Z,98401.69
2018-02-23T20:47:08.040Z,98398.48
2018-02-23T21:07:42.971Z,98401.45
2018-02-23T21:28:20.509Z,98413.36
2018-02-23T21:48:55.360Z,98437.72
2018-02-23T22:09:31.980Z,98441.66
2018-02-23T22:30:08.056Z,98460.61
2018-02-23T22:50:45.174Z,98472.00
2018-02-23T23:11:21.361Z,98467.39
2018-02-23T23:31:58.782Z,98437.50
2018-02-23T23:52:36.815Z,98440.36
